Time;durP1;ratioP1;P1;durP2;ratioP2;P2;SDS_P1;SDS_P2;PMS_P1;PMS_P2;Temp;Humidity;BMP_temperature;BMP_pressure;BME280_temperature;BME280_humidity;BME280_pressure;Samples;Min_cycle;Max_cycle;Signal;HPM_P1;HPM_P2
2023/03/18 00:00:26;;;;;;;4.27;3.07;;;8.70;99.90;;;9.47;100.00;97667.50;5015429;28;20471;-75
2023/03/18 00:02:55;;;;;;;5.60;2.90;;;8.70;99.90;;;9.44;100.00;97662.63;5014415;28;20465;-75
2023/03/18 00:05:25;;;;;;;5.03;2.73;;;8.70;99.90;;;9.45;100.00;97663.44;5017269;28;20498;-75
2023/03/18 00:07:54;;;;;;;4.00;2.60;;;8.80;99.90;;;9.43;100.00;97658.41;5015283;28;20554;-75
2023/03/18 00:10:23;;;;;;;4.60;3.00;;;8.70;99.90;;;9.42;100.00;97653.38;5014827;28;20504;-76
2023/03/18 00:12:54;;;;;;;10.20;3.43;;;8.70;99.90;;;9.41;100.00;97663.00;5015598;28;20479;-75
2023/03/18 00:15:24;;;;;;;3.93;2.80;;;8.70;99.90;;;9.41;100.00;97663.00;5015413;28;20501;-75
2023/03/18 00:17:54;;;;;;;3.90;2.57;;;8.80;99.90;;;9.40;100.00;97671.84;5016675;28;20961;-75
2023/03/18 00:20:37;;;;;;;6.40;2.90;;;8.70;99.90;;;9.41;100.00;97663.00;5013852;28;20465;-76
2023/03/18 00:23:08;;;;;;;7.17;3.57;;;8.70;99.90;;;9.42;100.00;97666.41;5014020;28;20908;-75
2023/03/18 00:25:39;;;;;;;5.87;2.87;;;8.70;99.90;;;9.39;100.00;97675.44;5015488;28;21142;-76
2023/03/18 00:28:09;;;;;;;4.00;2.50;;;8.70;99.90;;;9.37;100.00;97656.53;5015665;28;20462;-75
2023/03/18 00:30:41;;;;;;;9.83;2.60;;;8.70;99.90;;;9.37;100.00;97656.53;5016174;28;20458;-76
2023/03/18 00:33:12;;;;;;;4.17;2.50;;;8.70;99.90;;;9.36;100.00;97670.59;5015445;28;20466;-76
2023/03/18 00:35:41;;;;;;;3.33;2.67;;;8.70;99.90;;;9.35;100.00;97674.19;5016671;28;21041;-76
2023/03/18 00:38:19;;;;;;;4.97;2.90;;;8.70;99.90;;;9.34;100.00;97671.78;5014926;28;20467;-76
2023/03/18 00:41:00;;;;;;;4.33;2.63;;;8.80;99.90;;;9.34;100.00;97683.00;5016736;28;20553;-76
2023/03/18 00:43:34;;;;;;;6.23;2.67;;;8.80;99.90;;;9.34;100.00;97675.19;5014012;28;20463;-77
2023/03/18 00:46:04;;;;;;;6.90;3.10;;;8.80;99.90;;;9.35;100.00;97681.22;5018592;28;20494;-75
2023/03/18 00:48:35;;;;;;;9.53;3.10;;;8.70;99.90;;;9.34;100.00;97671.78;5019237;28;20470;-75
2023/03/18 00:51:05;;;;;;;6.70;3.30;;;8.60;99.90;;;9.32;100.00;97679.81;5016432;28;20473;-76
2023/03/18 00:53:35;;;;;;;5.57;2.70;;;8.60;99.90;;;9.32;100.00;97664.16;5018003;28;20462;-73
2023/03/18 00:56:05;;;;;;;5.17;3.00;;;8.70;99.90;;;9.31;100.00;97659.09;5019948;28;20473;-76
2023/03/18 00:58:37;;;;;;;6.80;2.40;;;8.60;99.90;;;9.31;100.00;97659.09;5017782;28;20703;-76
2023/03/18 01:01:06;;;;;;;4.43;2.40;;;8.60;99.90;;;9.29;100.00;97651.47;5016699;28;21033;-76
2023/03/18 01:03:37;;;;;;;3.40;2.30;;;8.60;99.90;;;9.26;100.00;97651.84;5017761;28;20552;-73
2023/03/18 01:06:07;;;;;;;7.30;4.00;;;8.50;99.90;;;9.25;100.00;97652.84;5017037;28;20497;-76
2023/03/18 01:08:37;;;;;;;3.53;2.73;;;8.60;99.90;;;9.26;100.00;97653.66;5018929;28;20504;-76
2023/03/18 01:11:07;;;;;;;3.00;1.97;;;8.60;99.90;;;9.23;100.00;97652.25;5021329;28;20520;-76
2023/03/18 01:13:39;;;;;;;8.77;2.87;;;8.60;99.90;;;9.22;100.00;97658.44;5022288;28;20485;-76
2023/03/18 01:16:10;;;;;;;5.83;2.90;;;8.70;99.90;;;9.23;100.00;97654.84;5019834;28;20463;-76
2023/03/18 01:18:41;;;;;;;5.17;2.53;;;8.60;99.90;;;9.22;100.00;97661.06;5018731;28;20465;-76
2023/03/18 01:21:11;;;;;;;5.60;2.13;;;8.60;99.90;;;9.23;100.00;97659.25;5019643;28;20517;-76
2023/03/18 01:23:41;;;;;;;4.60;2.50;;;8.60;99.90;;;9.23;100.00;97659.25;5016855;28;20953;-76
2023/03/18 01:26:11;;;;;;;4.97;2.43;;;8.60;99.90;;;9.21;100.00;97658.63;5019698;28;20498;-76
2023/03/18 01:28:41;;;;;;;5.67;2.50;;;8.60;99.90;;;9.22;100.00;97652.41;5019877;28;20465;-76
2023/03/18 01:31:12;;;;;;;5.13;2.30;;;8.50;99.90;;;9.22;100.00;97653.22;5020730;28;20665;-76
2023/03/18 01:33:41;;;;;;;3.47;2.43;;;8.50;99.90;;;9.22;100.00;97650.63;5019536;28;20516;-76
2023/03/18 01:36:10;;;;;;;2.60;2.27;;;8.50;99.90;;;9.22;100.00;97660.25;5018488;28;20817;-76
2023/03/18 01:38:41;;;;;;;3.23;2.77;;;8.50;99.90;;;9.20;100.00;97665.63;5020791;28;20472;-76
2023/03/18 01:41:11;;;;;;;6.50;3.30;;;8.50;99.90;;;9.21;100.00;97669.88;5025332;28;20977;-76
2023/03/18 01:43:43;;;;;;;4.83;2.10;;;8.60;99.90;;;9.22;100.00;97674.09;5025777;28;20486;-76
2023/03/18 01:46:37;;;;;;;5.50;2.80;;;8.60;99.90;;;9.24;100.00;97661.66;5023001;28;20493;-76
2023/03/18 01:49:12;;;;;;;4.47;2.80;;;8.60;99.90;;;9.21;100.00;97664.66;5024592;28;20516;-76
2023/03/18 01:51:46;;;;;;;3.73;2.13;;;8.60;99.90;;;9.22;100.00;97679.31;5029344;28;20454;-76
2023/03/18 01:54:18;;;;;;;3.17;2.50;;;8.50;99.90;;;9.22;100.00;97674.09;5027342;28;20895;-76
2023/03/18 01:56:51;;;;;;;4.53;2.90;;;8.70;99.90;;;9.23;100.00;97674.91;5027376;28;20462;-76
2023/03/18 01:59:27;;;;;;;9.93;2.80;;;8.60;99.90;;;9.22;100.00;97674.09;5027871;28;20466;-76
2023/03/18 02:02:02;;;;;;;4.60;3.00;;;8.60;99.90;;;9.22;100.00;97668.88;5028643;28;20480;-76
2023/03/18 02:04:38;;;;;;;4.40;2.40;;;8.50;99.90;;;9.23;100.00;97654.84;5027752;28;20489;-76
2023/03/18 02:07:08;;;;;;;6.83;2.70;;;8.60;99.90;;;9.22;100.00;97663.66;5027390;28;20527;-76
2023/03/18 02:09:39;;;;;;;4.20;2.70;;;8.50;99.90;;;9.21;100.00;97654.22;5029135;28;21040;-76
2023/03/18 02:12:11;;;;;;;4.03;2.70;;;8.50;99.90;;;9.20;100.00;97662.25;5025060;28;21003;-76
2023/03/18 02:14:42;;;;;;;4.20;2.70;;;8.50;99.90;;;9.15;100.00;97660.19;5027351;28;20532;-76
2023/03/18 02:17:18;;;;;;;7.40;2.97;;;8.50;99.90;;;9.11;100.00;97661.56;5028088;28;20497;-76
2023/03/18 02:20:02;;;;;;;6.43;2.80;;;8.50;99.90;;;9.10;100.00;97671.16;5027765;28;20560;-76
2023/03/18 02:22:38;;;;;;;6.53;2.77;;;8.40;99.90;;;9.09;100.00;97679.97;5028768;28;21010;-76
2023/03/18 02:25:27;;;;;;;6.60;2.90;;;8.40;99.90;;;9.09;100.00;97669.53;5026014;28;20465;-76
2023/03/18 02:28:03;;;;;;;4.03;2.73;;;8.50;99.90;;;9.08;100.00;97667.16;5026838;28;20539;-76
2023/03/18 02:30:38;;;;;;;6.20;3.00;;;8.50;99.90;;;9.06;100.00;97672.53;5031213;28;20466;-76
2023/03/18 02:33:10;;;;;;;7.40;2.90;;;8.40;99.90;;;9.05;100.00;97662.31;5028783;28;20558;-76
2023/03/18 02:35:45;;;;;;;4.30;3.50;;;8.40;99.90;;;9.07;100.00;97657.69;5020748;28;20463;-76
2023/03/18 02:38:15;;;;;;;3.77;2.77;;;8.50;99.90;;;9.04;100.00;97666.72;5019982;28;20466;-76
2023/03/18 02:40:44;;;;;;;3.20;2.70;;;8.40;99.90;;;9.04;100.00;97666.72;5020203;28;20498;-76
2023/03/18 02:43:23;;;;;;;8.33;2.57;;;8.30;99.90;;;9.06;100.00;97658.69;5017358;28;20458;-76
2023/03/18 02:46:26;;;;;;;20.53;2.90;;;8.40;99.90;;;9.04;100.00;97653.66;5019183;28;20546;-76
2023/03/18 02:48:58;;;;;;;4.67;2.97;;;8.40;99.90;;;9.05;100.00;97657.09;5017199;28;20459;-76
2023/03/18 02:51:28;;;;;;;4.10;2.67;;;8.30;99.90;;;9.05;100.00;97667.53;5015006;28;20463;-76
2023/03/18 02:54:05;;;;;;;6.03;2.03;;;8.40;99.90;;;9.03;100.00;97665.09;5017666;28;20467;-76
2023/03/18 02:56:35;;;;;;;3.40;2.57;;;8.40;99.90;;;9.02;100.00;97667.91;5017101;28;20949;-76
2023/03/18 02:59:07;;;;;;;3.73;2.57;;;8.30;99.90;;;9.02;100.00;97667.91;5017376;28;20466;-76
2023/03/18 03:01:39;;;;;;;6.90;2.60;;;8.30;99.90;;;9.02;100.00;97673.13;5018334;28;20465;-76
2023/03/18 03:04:11;;;;;;;4.20;2.60;;;8.30;99.90;;;9.01;100.00;97661.06;5017302;28;20478;-76
2023/03/18 03:06:42;;;;;;;3.27;2.53;;;8.30;99.90;;;9.00;100.00;97670.69;5014900;28;20554;-76
2023/03/18 03:09:15;;;;;;;3.40;2.43;;;8.30;99.90;;;8.97;100.00;97675.47;5016352;28;20547;-76
2023/03/18 03:11:47;;;;;;;3.07;2.23;;;8.30;99.90;;;8.98;100.00;97674.47;5022914;28;20953;-76
2023/03/18 03:14:17;;;;;;;5.50;2.40;;;8.30;99.90;;;8.97;100.00;97683.28;5019846;28;20473;-76
2023/03/18 03:16:48;;;;;;;10.27;2.77;;;8.20;99.90;;;8.96;100.00;97679.84;5018961;28;20469;-77
2023/03/18 03:19:18;;;;;;;3.97;2.40;;;8.30;99.90;;;8.96;100.00;97674.66;5024707;28;20454;-76
2023/03/18 03:21:49;;;;;;;4.90;2.83;;;8.30;99.90;;;8.98;100.00;97674.47;5024365;28;20468;-76
2023/03/18 03:24:18;;;;;;;3.37;2.40;;;8.20;99.90;;;8.96;100.00;97673.84;5022168;28;20499;-76
2023/03/18 03:26:48;;;;;;;3.57;2.97;;;8.30;99.90;;;8.94;100.00;97673.22;5020390;28;20470;-76
2023/03/18 03:29:20;;;;;;;6.20;2.50;;;8.20;99.90;;;8.93;100.00;97687.25;5021052;28;20462;-76
2023/03/18 03:31:48;;;;;;;4.40;2.70;;;8.20;99.90;;;8.92;100.00;97683.81;5018893;28;20561;-76
2023/03/18 03:34:19;;;;;;;4.63;2.70;;;8.20;99.90;;;8.93;100.00;97687.25;5015654;28;20454;-76
2023/03/18 03:36:49;;;;;;;5.63;2.50;;;8.30;99.90;;;8.92;100.00;97683.03;5018027;28;20474;-76
2023/03/18 03:39:19;;;;;;;6.30;2.20;;;8.20;99.90;;;8.93;100.00;97679.44;5016861;28;20454;-76
2023/03/18 03:41:49;;;;;;;6.70;2.67;;;8.20;99.90;;;8.93;100.00;97688.06;5015694;28;21123;-76
2023/03/18 03:44:19;;;;;;;8.53;2.97;;;8.30;99.90;;;8.92;100.00;97699.47;5016490;28;20553;-76
2023/03/18 03:46:50;;;;;;;4.63;2.73;;;8.20;99.90;;;8.91;100.00;97691.84;5015720;28;20474;-76
2023/03/18 03:49:21;;;;;;;4.60;2.47;;;8.20;99.90;;;8.92;100.00;97688.25;5018299;28;20462;-76
2023/03/18 03:51:51;;;;;;;2.70;2.30;;;8.20;99.90;;;8.91;100.00;97690.06;5017807;28;20462;-76
2023/03/18 03:54:21;;;;;;;2.80;2.20;;;8.20;99.90;;;8.91;100.00;97699.69;5017822;28;20570;-76
2023/03/18 03:56:52;;;;;;;6.80;2.60;;;8.20;99.90;;;8.91;100.00;97707.50;5016316;28;20938;-75
2023/03/18 03:59:23;;;;;;;5.73;2.83;;;8.20;99.90;;;8.89;100.00;97706.84;5016077;28;20465;-76
2023/03/18 04:01:52;;;;;;;5.40;2.60;;;8.20;99.90;;;8.89;100.00;97715.50;5017662;28;20558;-76
2023/03/18 04:04:22;;;;;;;6.97;2.90;;;8.20;99.90;;;8.89;100.00;97720.69;5014526;28;20557;-76
2023/03/18 04:06:52;;;;;;;4.93;2.60;;;8.10;99.90;;;8.87;100.00;97720.09;5021690;28;20464;-76
2023/03/18 04:09:22;;;;;;;3.50;2.70;;;8.10;99.90;;;8.88;100.00;97713.91;5026997;28;20469;-76
2023/03/18 04:11:52;;;;;;;4.37;2.63;;;8.10;99.90;;;8.87;100.00;97722.69;5024422;28;20474;-76
2023/03/18 04:14:23;;;;;;;6.23;2.80;;;8.10;99.90;;;8.87;100.00;97719.28;5025309;28;21028;-76
2023/03/18 04:16:54;;;;;;;4.17;3.10;;;8.10;99.90;;;8.84;100.00;97712.66;5026682;28;21012;-76
2023/03/18 04:19:26;;;;;;;8.03;3.00;;;8.10;99.90;;;8.85;100.00;97723.88;5027524;28;21004;-76
2023/03/18 04:21:57;;;;;;;3.13;2.83;;;8.10;99.90;;;8.83;100.00;97720.63;5029642;28;20469;-76
2023/03/18 04:24:27;;;;;;;4.40;2.47;;;8.10;99.90;;;8.81;100.00;97712.19;5032423;28;20468;-76
2023/03/18 04:26:57;;;;;;;11.23;3.10;;;8.00;99.90;;;8.78;100.00;97718.56;5027551;28;20457;-76
2023/03/18 04:29:28;;;;;;;6.23;3.00;;;8.00;99.90;;;8.78;100.00;97723.00;5019644;28;20612;-76
2023/03/18 04:31:57;;;;;;;6.47;2.60;;;8.00;99.90;;;8.74;100.00;97724.34;5019023;28;20517;-76
2023/03/18 04:34:28;;;;;;;1.93;1.83;;;7.90;99.90;;;8.73;100.00;97725.34;5021346;28;20552;-76
2023/03/18 04:36:58;;;;;;;9.90;2.60;;;7.90;99.90;;;8.70;100.00;97729.13;5021063;28;20464;-76
2023/03/18 04:39:28;;;;;;;11.53;3.43;;;7.90;99.90;;;8.69;100.00;97729.28;5021546;28;20466;-76
2023/03/18 04:41:57;;;;;;;3.40;2.80;;;7.90;99.90;;;8.67;100.00;97729.50;5017776;28;20973;-76
2023/03/18 04:44:28;;;;;;;5.97;2.50;;;7.90;99.90;;;8.67;100.00;97728.69;5020998;28;20469;-76
2023/03/18 04:46:58;;;;;;;6.53;2.93;;;7.80;99.90;;;8.65;100.00;97735.84;5022049;28;20531;-76
2023/03/18 04:49:27;;;;;;;5.50;2.60;;;7.80;99.90;;;8.56;100.00;97725.56;5020867;28;20577;-76
2023/03/18 04:51:58;;;;;;;8.13;2.93;;;7.80;99.90;;;8.51;100.00;97725.28;5020247;28;20961;-76
2023/03/18 04:54:28;;;;;;;4.83;2.67;;;7.90;99.90;;;8.47;100.00;97726.63;5020238;28;20466;-76
2023/03/18 04:56:58;;;;;;;4.60;2.60;;;7.80;99.90;;;8.47;100.00;97723.22;5020817;28;20502;-76
2023/03/18 04:59:29;;;;;;;7.47;2.97;;;7.70;99.90;;;8.45;100.00;97731.22;5018184;28;20555;-76
2023/03/18 05:01:59;;;;;;;3.30;2.83;;;7.70;99.90;;;8.42;100.00;97726.38;5020853;28;21086;-76
2023/03/18 05:04:29;;;;;;;4.70;2.70;;;7.70;99.90;;;8.41;100.00;97729.16;5023439;28;20894;-76
2023/03/18 05:06:59;;;;;;;3.73;2.50;;;7.70;99.90;;;8.38;100.00;97726.91;5022772;28;20466;-76
2023/03/18 05:09:30;;;;;;;3.73;2.60;;;7.60;99.90;;;8.32;100.00;97718.03;5017911;28;20489;-73
2023/03/18 05:12:00;;;;;;;6.03;2.67;;;7.50;99.90;;;8.28;100.00;97727.19;5014449;28;21856;-76
2023/03/18 05:14:31;;;;;;;5.00;2.67;;;7.60;99.90;;;8.20;100.00;97714.22;5015252;28;20466;-76
2023/03/18 05:17:01;;;;;;;6.07;2.93;;;7.50;99.90;;;8.17;100.00;97714.59;5017133;28;20972;-76
2023/03/18 05:19:32;;;;;;;9.67;2.97;;;7.40;99.90;;;8.10;100.00;97719.69;5016384;28;20557;-76
2023/03/18 05:22:01;;;;;;;5.70;2.60;;;7.30;99.90;;;8.10;100.00;97724.91;5017349;28;20470;-72
2023/03/18 05:24:30;;;;;;;5.90;3.83;;;7.30;99.90;;;8.07;100.00;97727.06;5016650;28;20466;-76
2023/03/18 05:27:00;;;;;;;5.27;3.30;;;7.40;99.90;;;8.01;100.00;97727.78;5014226;28;20497;-76
2023/03/18 05:29:32;;;;;;;8.97;3.50;;;7.40;99.90;;;7.99;100.00;97729.75;5017089;28;20490;-76
2023/03/18 05:32:03;;;;;;;3.70;3.03;;;7.30;99.90;;;7.99;100.00;97727.94;5019110;28;20535;-76
2023/03/18 05:34:32;;;;;;;3.17;2.50;;;7.20;99.90;;;7.95;100.00;97726.69;5017611;28;20466;-76
2023/03/18 05:37:02;;;;;;;2.70;2.50;;;7.30;99.90;;;7.90;100.00;97726.44;5018121;28;20465;-76
2023/03/18 05:39:32;;;;;;;5.27;3.10;;;7.20;99.90;;;7.88;100.00;97727.59;5017798;28;20944;-76
2023/03/18 05:42:03;;;;;;;5.63;2.83;;;7.10;99.90;;;7.86;100.00;97722.56;5016525;28;21179;-76
2023/03/18 05:44:34;;;;;;;7.20;2.73;;;7.10;99.90;;;7.80;100.00;97725.88;5019476;28;20470;-76
2023/03/18 05:47:04;;;;;;;7.10;3.17;;;7.10;99.90;;;7.75;100.00;97729.97;5019089;28;20465;-76
2023/03/18 05:49:34;;;;;;;7.00;5.67;;;7.10;99.90;;;7.73;100.00;97721.56;5017735;28;20497;-77
2023/03/18 05:52:06;;;;;;;4.37;2.50;;;7.00;99.90;;;7.71;100.00;97728.72;5016855;28;20633;-76
2023/03/18 05:54:36;;;;;;;10.47;3.17;;;7.00;99.90;;;7.71;100.00;97731.31;5017078;28;20538;-76
2023/03/18 05:57:08;;;;;;;4.93;3.23;;;7.00;99.90;;;7.68;100.00;97727.28;5019064;28;20466;-76
2023/03/18 05:59:39;;;;;;;6.07;3.80;;;7.00;99.90;;;7.69;100.00;97735.91;5015214;28;20966;-76
2023/03/18 06:02:12;;;;;;;4.60;2.97;;;6.90;99.90;;;7.66;100.00;97741.47;5017909;28;20550;-76
2023/03/18 06:04:42;;;;;;;7.93;3.30;;;6.90;99.90;;;7.64;100.00;97743.41;5018029;28;20482;-75
2023/03/18 06:07:12;;;;;;;3.43;2.93;;;6.80;99.90;;;7.62;100.00;97746.19;5018987;28;20639;-76
2023/03/18 06:09:42;;;;;;;4.80;3.30;;;6.90;99.90;;;7.60;100.00;97753.38;5015638;28;20534;-76
2023/03/18 06:12:12;;;;;;;7.60;3.90;;;6.80;99.90;;;7.59;100.00;97746.56;5018290;28;20466;-76
2023/03/18 06:14:44;;;;;;;10.00;3.90;;;6.70;99.90;;;7.60;100.00;97748.19;5018024;28;20881;-76
2023/03/18 06:17:14;;;;;;;5.60;3.57;;;6.80;99.90;;;7.60;100.00;97748.19;5017719;28;20467;-76
2023/03/18 06:19:44;;;;;;;9.80;4.03;;;6.80;99.90;;;7.62;100.00;97755.81;5019149;28;20463;-76
2023/03/18 06:22:15;;;;;;;8.40;3.73;;;6.80;99.90;;;7.61;100.00;97762.78;5025196;28;20964;-76
2023/03/18 06:24:47;;;;;;;21.10;3.60;;;6.80;99.90;;;7.56;100.00;97755.53;5026158;28;20463;-76
2023/03/18 06:27:17;;;;;;;4.97;3.50;;;6.80;99.90;;;7.55;100.00;97756.50;5017006;28;20486;-76
2023/03/18 06:29:48;;;;;;;14.83;4.30;;;6.70;99.90;;;7.56;100.00;97763.34;5018198;28;20490;-76
2023/03/18 06:32:17;;;;;;;4.90;3.70;;;6.70;99.90;;;7.57;100.00;97759.72;5014909;28;20832;-76
2023/03/18 06:34:48;;;;;;;6.93;4.23;;;6.70;99.90;;;7.56;100.00;97768.53;5015224;28;20528;-76
2023/03/18 06:37:18;;;;;;;10.60;5.40;;;6.80;99.90;;;7.55;100.00;97779.91;5017746;28;20494;-76
2023/03/18 06:39:48;;;;;;;11.23;4.83;;;6.80;99.90;;;7.54;100.00;97775.69;5014699;28;20475;-76
2023/03/18 06:42:19;;;;;;;14.80;4.10;;;6.80;99.90;;;7.53;100.00;97778.47;5014145;28;20525;-76
2023/03/18 06:44:52;;;;;;;10.00;5.17;;;6.80;99.90;;;7.53;100.00;97778.47;5017098;28;20458;-76
2023/03/18 06:47:22;;;;;;;5.90;2.87;;;6.80;99.90;;;7.52;100.00;97784.66;5017475;28;20616;-76
2023/03/18 06:49:53;;;;;;;12.63;4.90;;;6.80;99.90;;;7.54;100.00;97780.91;5014767;28;20502;-76
2023/03/18 06:52:23;;;;;;;6.87;3.87;;;6.80;99.90;;;7.57;100.00;97785.75;5015607;28;20471;-76
2023/03/18 06:54:55;;;;;;;6.73;3.00;;;6.80;99.90;;;7.60;100.00;97784.63;5017514;28;20462;-76
2023/03/18 06:57:25;;;;;;;4.97;3.40;;;6.80;99.90;;;7.61;100.00;97786.22;5016266;28;20466;-76
2023/03/18 06:59:56;;;;;;;8.10;3.50;;;6.90;99.90;;;7.64;100.00;97787.66;5014588;28;20516;-76
2023/03/18 07:02:27;;;;;;;11.73;3.80;;;6.90;99.90;;;7.65;100.00;97787.47;5018329;28;20944;-76
2023/03/18 07:04:58;;;;;;;13.73;4.57;;;6.90;99.90;;;7.65;100.00;97789.28;5014534;28;20497;-76
2023/03/18 07:07:28;;;;;;;16.20;4.80;;;6.90;99.90;;;7.66;100.00;97794.31;5016034;28;20475;-76
2023/03/18 07:09:59;;;;;;;6.60;4.07;;;6.90;99.90;;;7.67;100.00;97795.13;5014474;28;20503;-76
2023/03/18 07:12:29;;;;;;;11.73;3.90;;;6.90;99.90;;;7.68;100.00;97792.34;5017684;28;20466;-76
2023/03/18 07:15:01;;;;;;;22.97;4.10;;;6.90;99.90;;;7.69;100.00;97799.16;5014365;28;20561;-76
2023/03/18 07:17:31;;;;;;;5.60;3.87;;;6.90;99.90;;;7.71;100.00;97798.97;5015312;28;20466;-76
2023/03/18 07:20:00;;;;;;;15.03;4.50;;;6.90;99.90;;;7.71;100.00;97796.38;5015321;28;20500;-76
2023/03/18 07:22:31;;;;;;;11.60;3.60;;;7.00;99.90;;;7.67;100.00;97797.72;5013584;28;20508;-77
2023/03/18 07:25:01;;;;;;;9.73;3.47;;;7.10;99.90;;;7.66;100.00;97806.50;5017739;28;20461;-72
2023/03/18 07:27:30;;;;;;;11.23;4.50;;;7.10;99.90;;;7.65;100.00;97807.47;5012610;28;20472;-77
2023/03/18 07:30:01;;;;;;;7.20;4.00;;;7.00;99.90;;;7.67;100.00;97813.34;5016982;28;20589;-76
2023/03/18 07:32:30;;;;;;;7.50;4.03;;;7.00;99.90;;;7.69;100.00;97813.97;5015708;28;20478;-76
2023/03/18 07:34:59;;;;;;;6.20;3.83;;;7.00;99.90;;;7.71;100.00;97812.78;5014189;28;20462;-76
2023/03/18 07:37:28;;;;;;;7.30;3.43;;;6.90;99.90;;;7.73;100.00;97805.66;5016424;28;20462;-78
2023/03/18 07:39:59;;;;;;;4.77;3.10;;;7.00;99.90;;;7.77;100.00;97816.50;5014034;28;20540;-76
2023/03/18 07:42:30;;;;;;;6.60;3.50;;;7.00;99.90;;;7.78;100.00;97818.13;5015158;28;20528;-76
2023/03/18 07:45:01;;;;;;;5.37;3.60;;;7.00;99.90;;;7.81;100.00;97812.59;5015940;28;20455;-77
2023/03/18 07:47:31;;;;;;;5.80;3.70;;;7.00;99.90;;;7.81;100.00;97808.16;5015617;28;20462;-76
2023/03/18 07:50:01;;;;;;;5.10;3.53;;;7.00;99.90;;;7.85;100.00;97811.22;5013798;28;20521;-76
2023/03/18 07:52:31;;;;;;;4.00;3.20;;;7.10;99.90;;;7.87;100.00;97806.66;5014257;28;20461;-77
2023/03/18 07:55:00;;;;;;;3.83;2.80;;;7.20;99.90;;;7.90;100.00;97804.53;5015842;28;20467;-76
2023/03/18 07:57:30;;;;;;;4.57;3.10;;;7.20;99.90;;;7.94;100.00;97804.97;5016676;28;20480;-76
2023/03/18 08:00:01;;;;;;;5.40;4.10;;;7.20;99.90;;;7.99;100.00;97800.84;5015387;28;20505;-74
2023/03/18 08:02:32;;;;;;;22.67;11.20;;;7.30;99.90;;;8.04;100.00;97805.53;5014738;28;20477;-76
2023/03/18 08:05:03;;;;;;;4.40;2.90;;;7.30;99.90;;;8.09;100.00;97805.81;5014084;28;20497;-76
2023/03/18 08:07:33;;;;;;;4.80;3.30;;;7.40;99.90;;;8.15;100.00;97806.91;5013070;28;20462;-76
2023/03/18 08:10:02;;;;;;;3.77;3.10;;;7.40;99.90;;;8.18;100.00;97799.53;5014946;28;20596;-76
2023/03/18 08:12:32;;;;;;;2.97;2.70;;;7.50;99.90;;;8.24;100.00;97798.81;5014093;28;20473;-76
2023/03/18 08:15:22;;;;;;;4.00;2.40;;;7.50;99.90;;;8.29;100.00;97809.56;5016259;28;20492;-76
2023/03/18 08:17:52;;;;;;;4.13;2.50;;;7.60;99.90;;;8.33;100.00;97807.41;5016175;28;20577;-76
2023/03/18 08:20:23;;;;;;;4.30;2.60;;;7.60;99.90;;;8.37;100.00;97808.66;5015028;28;20467;-76
2023/03/18 08:22:51;;;;;;;2.97;2.00;;;7.60;99.90;;;8.40;100.00;97805.72;5015714;28;20486;-76
2023/03/18 08:25:21;;;;;;;3.23;2.20;;;7.70;99.90;;;8.42;100.00;97804.53;5014336;28;20553;-76
2023/03/18 08:27:52;;;;;;;7.93;2.20;;;7.80;99.90;;;8.47;100.00;97811.78;5016758;28;20549;-76
2023/03/18 08:30:27;;;;;;;5.00;1.80;;;7.80;99.90;;;8.52;100.00;97820.72;5015858;28;20485;-76
2023/03/18 08:32:57;;;;;;;4.93;1.90;;;7.90;99.90;;;8.56;100.00;97827.19;5015845;28;20479;-76
2023/03/18 08:35:26;;;;;;;5.60;2.23;;;7.90;99.90;;;8.62;100.00;97822.22;5014469;28;20468;-77
2023/03/18 08:37:56;;;;;;;2.80;2.00;;;8.00;99.90;;;8.68;100.00;97832.75;5014980;28;20937;-77
2023/03/18 08:40:27;;;;;;;2.73;1.87;;;8.10;99.90;;;8.74;100.00;97819.00;5014480;28;20467;-77
2023/03/18 08:42:58;;;;;;;2.00;1.60;;;8.20;99.90;;;8.82;100.00;97818.06;5015143;28;20556;-77
2023/03/18 08:45:28;;;;;;;9.43;2.70;;;8.20;99.90;;;8.87;100.00;97816.56;5013759;28;20923;-77
2023/03/18 08:47:57;;;;;;;4.50;2.00;;;8.30;99.90;;;8.94;100.00;97817.44;5013257;28;20839;-77
2023/03/18 08:50:28;;;;;;;2.93;1.80;;;8.40;99.90;;;9.02;100.00;97809.50;5015901;28;20993;-76
2023/03/18 08:53:00;;;;;;;2.80;2.00;;;8.50;99.90;;;9.09;100.00;97796.56;5014957;28;20897;-77
2023/03/18 08:55:31;;;;;;;4.37;2.20;;;8.50;99.90;;;9.18;100.00;97797.25;5016105;28;20545;-77
2023/03/18 08:58:03;;;;;;;4.07;1.80;;;8.60;99.90;;;9.22;100.00;97791.50;5016037;28;20874;-77
2023/03/18 09:00:37;;;;;;;4.27;1.90;;;8.70;99.90;;;9.32;100.00;97788.56;5013976;28;21123;-78
2023/03/18 09:03:07;;;;;;;2.63;1.83;;;8.80;99.90;;;9.36;100.00;97779.38;5014656;28;20976;-78
2023/03/18 09:05:37;;;;;;;36.27;15.80;;;8.80;99.90;;;9.43;100.00;97770.63;5018535;28;20887;-77
2023/03/18 09:08:07;;;;;;;3.40;2.60;;;8.90;99.90;;;9.50;100.00;97774.13;5019145;28;20561;-78
2023/03/18 09:10:35;;;;;;;2.30;1.57;;;9.00;99.90;;;9.57;100.00;97767.16;5018661;28;20561;-75
2023/03/18 09:13:04;;;;;;;3.13;2.17;;;9.10;99.90;;;9.66;100.00;97764.38;5017016;28;20469;-77
2023/03/18 09:15:35;;;;;;;3.03;2.03;;;9.30;99.90;;;9.74;100.00;97764.28;5018551;28;20463;-77
2023/03/18 09:18:05;;;;;;;3.63;1.60;;;9.30;99.90;;;9.81;100.00;97765.13;5020302;28;21036;-77
2023/03/18 09:20:40;;;;;;;12.50;1.83;;;9.30;99.90;;;9.87;100.00;97759.16;5019969;28;20520;-77
2023/03/18 09:23:10;;;;;;;1.57;1.47;;;9.40;99.90;;;9.92;100.00;97754.97;5019479;28;20454;-77
2023/03/18 09:25:41;;;;;;;3.47;1.67;;;9.40;99.90;;;9.98;100.00;97756.84;5018029;28;21028;-77
2023/03/18 09:28:10;;;;;;;2.53;1.90;;;9.50;99.90;;;10.04;100.00;97750.03;5027703;28;20470;-77
2023/03/18 09:30:42;;;;;;;4.63;1.90;;;9.60;99.90;;;10.10;100.00;97754.47;5022329;28;20502;-77
2023/03/18 09:33:12;;;;;;;2.67;1.40;;;9.60;99.90;;;10.15;100.00;97759.97;5025125;28;20544;-76
2023/03/18 09:35:43;;;;;;;4.07;1.70;;;9.70;99.90;;;10.22;100.00;97755.59;5019849;28;20580;-76
2023/03/18 09:38:16;;;;;;;6.23;1.60;;;9.60;99.90;;;10.27;100.00;97758.47;5020522;28;20463;-76
2023/03/18 09:40:59;;;;;;;5.43;2.07;;;9.60;99.90;;;10.36;100.00;97751.25;5019246;28;20504;-76
2023/03/18 09:43:52;;;;;;;1.87;1.70;;;9.80;99.90;;;10.43;100.00;97757.34;5019066;28;20841;-76
2023/03/18 09:46:33;;;;;;;4.70;1.77;;;9.90;99.90;;;10.51;100.00;97754.56;5018687;28;20463;-76
2023/03/18 09:49:42;;;;;;;8.73;1.67;;;10.00;99.90;;;10.59;100.00;97757.81;5020005;28;20756;-76
2023/03/18 09:52:23;;;;;;;3.00;1.57;;;10.00;99.90;;;10.66;100.00;97752.63;5016637;28;21135;-76
2023/03/18 09:55:02;;;;;;;3.83;1.87;;;10.10;99.90;;;10.73;100.00;97747.41;5019694;28;21240;-76
2023/03/18 09:57:36;;;;;;;2.90;1.80;;;10.20;99.90;;;10.80;100.00;97746.44;5019651;28;20553;-76
2023/03/18 10:00:19;;;;;;;9.10;1.67;;;10.30;99.90;;;10.88;100.00;97751.50;5018522;28;20473;-76
2023/03/18 10:02:55;;;;;;;3.20;1.77;;;10.40;99.90;;;10.97;100.00;97752.13;5019457;28;21167;-76
2023/03/18 10:05:32;;;;;;;1.83;1.67;;;10.40;99.90;;;11.03;100.00;97748.75;5018641;28;20899;-76
2023/03/18 10:08:09;;;;;;;3.63;1.53;;;10.50;99.90;;;11.10;100.00;97749.56;5015532;28;20465;-76
2023/03/18 10:10:45;;;;;;;4.60;1.63;;;10.60;99.90;;;11.14;100.00;97745.56;5022322;28;20844;-76
2023/03/18 10:13:22;;;;;;;3.47;1.80;;;10.70;99.90;;;11.22;100.00;97753.22;5027243;28;20496;-76
2023/03/18 10:15:56;;;;;;;4.53;1.40;;;10.80;99.90;;;11.27;100.00;97750.81;5027362;28;20887;-76
2023/03/18 10:18:33;;;;;;;2.57;1.50;;;10.90;99.90;;;11.34;100.00;97756.88;5027216;28;20489;-77
2023/03/18 10:21:20;;;;;;;7.43;1.40;;;10.90;99.90;;;11.40;100.00;97753.44;5028627;28;20456;-76
2023/03/18 10:24:05;;;;;;;7.13;1.90;;;10.90;99.90;;;11.47;100.00;97751.66;5025378;28;20485;-76
2023/03/18 10:26:45;;;;;;;3.80;1.90;;;11.00;99.90;;;11.53;100.00;97756.09;5028997;28;20502;-76
2023/03/18 10:29:33;;;;;;;2.03;1.40;;;11.10;99.90;;;11.57;100.00;97757.31;5027283;28;20548;-76
2023/03/18 10:32:23;;;;;;;2.50;1.60;;;11.10;99.90;;;11.63;100.00;97755.69;5025934;28;20525;-76
2023/03/18 10:35:14;;;;;;;4.07;1.77;;;11.30;99.90;;;11.68;100.00;97769.00;5028863;28;20457;-76
2023/03/18 10:37:57;;;;;;;2.90;1.60;;;11.20;99.90;;;11.74;100.00;97762.97;5029079;28;20497;-76
2023/03/18 10:40:33;;;;;;;4.07;1.70;;;11.20;99.90;;;11.77;100.00;97762.56;5027318;28;20560;-76
2023/03/18 10:43:04;;;;;;;8.20;2.10;;;11.30;99.90;;;11.83;100.00;97766.22;5027326;28;20561;-76